Latest Weather Observations for Adele Island

IDW60801

Issued at 10:05 am WST Thursday 24 April 2014 (issued every 30 minutes, with the page automatically refreshed every 10 minutes)

About weather observations | Map of weather stations | Latest weather observations for WA | Other Formats
Station Details ID: 200735 Name: ADELE ISLAND Lat: -15.51 Lon: 123.16 Height: 4.6 m
Data from the previous 72 hours. | See also: Recent months for locations in Western Australia
Date/Time
WST
Temp
°C
App
Temp
°C
Dew
Point
Rel
Hum
%
Delta-T
°C
Wind Press
QNH
hPa
Press
MSL
hPa
Rain
since 9 am
mm
Dir
 
Spd
km/h
Gust
km/h
Spd
kts
Gust
kts
24/10:00am 31.0 - - - - E 11 15 6 8 1010.3 1010.2 -
24/09:30am 30.9 - - - - ESE 9 13 5 7 1010.4 - -
24/09:00am 30.6 - - - - SE 11 15 6 8 1010.5 1010.4 -
24/08:30am 29.8 - - - - ESE 13 17 7 9 1010.4 - -
24/08:00am 29.3 - - - - SSE 15 17 8 9 1010.2 1010.1 -
24/07:30am 29.3 - - - - E 9 13 5 7 1010.0 - -
24/07:00am 28.2 - - - - E 9 11 5 6 1009.9 1009.8 -
24/06:30am 28.2 - - - - S 13 15 7 8 1009.7 - -
24/06:00am 27.8 - - - - S 11 11 6 6 1009.4 1009.3 -
24/05:30am 28.1 - - - - SSW 11 15 6 8 1009.1 - -
24/05:00am 28.0 - - - - SW 15 17 8 9 1009.1 1009.0 -
24/04:30am 28.4 - - - - W 13 15 7 8 1008.8 - -
24/04:00am 28.8 - - - - NNW 9 11 5 6 1008.9 1008.8 -
24/03:30am 28.2 - - - - W 11 13 6 7 1008.8 - -
24/03:00am 28.3 - - - - W 13 15 7 8 1008.8 1008.7 -
24/02:30am 28.3 - - - - W 15 17 8 9 1009.1 - -
24/02:00am 28.4 - - - - W 15 17 8 9 1009.2 1009.1 -
24/01:30am 28.7 - - - - WSW 17 20 9 11 1009.5 - -
24/01:00am 28.5 - - - - W 17 20 9 11 1009.6 1009.5 -
24/12:30am 28.4 - - - - W 15 17 8 9 1009.9 - -
24/12:00am 28.6 - - - - W 15 17 8 9 1010.0 1009.9 -
 
Date/Time
WST
Temp
°C
App
Temp
°C
Dew
Point
Rel
Hum
%
Delta-T
°C
Wind Press
QNH
hPa
Press
MSL
hPa
Rain
since 9 am
mm
Dir
 
Spd
km/h
Gust
km/h
Spd
kts
Gust
kts
23/11:30pm 28.9 - - - - W 13 15 7 8 1010.2 - -
23/11:00pm 28.7 - - - - W 13 15 7 8 1010.4 1010.3 -
23/10:30pm 29.3 - - - - WNW 13 15 7 8 1010.6 - -
23/10:00pm 29.3 - - - - W 13 15 7 8 1010.6 1010.5 -
23/09:30pm 29.0 - - - - W 13 15 7 8 1010.6 - -
23/09:00pm 28.9 - - - - W 15 17 8 9 1010.7 1010.6 -
23/08:30pm 29.0 - - - - W 15 19 8 10 1010.6 - -
23/08:00pm 29.0 - - - - W 17 19 9 10 1010.4 1010.3 -
23/07:30pm 29.2 - - - - W 17 20 9 11 1010.3 - -
23/07:00pm 28.9 - - - - W 15 19 8 10 1009.9 1009.8 -
23/06:30pm 29.0 - - - - W 15 17 8 9 1009.6 - -
23/06:00pm 29.2 - - - - WNW 13 15 7 8 1009.4 1009.3 -
23/05:30pm 29.4 - - - - W 11 13 6 7 1009.1 - -
23/05:00pm 29.6 - - - - SW 11 15 6 8 1008.7 1008.6 -
23/04:30pm 29.7 - - - - SW 11 13 6 7 1008.4 - -
23/04:00pm 30.1 - - - - WSW 11 15 6 8 1008.0 1007.9 -
23/03:30pm 30.2 - - - - WSW 11 15 6 8 1007.9 - -
23/03:00pm 30.2 - - - - WSW 13 17 7 9 1007.9 1007.8 -
23/02:30pm 29.9 - - - - WSW 13 17 7 9 1008.1 - -
23/02:00pm 30.2 - - - - WSW 13 17 7 9 1008.4 1008.3 -
23/01:30pm 30.8 - - - - W 13 19 7 10 1008.6 - -
23/01:00pm 31.1 - - - - WSW 15 19 8 10 1008.9 1008.8 -
23/12:30pm 30.7 - - - - WSW 17 20 9 11 1009.3 - -
23/12:00pm 30.9 - - - - SW 15 20 8 11 1009.6 1009.5 -
23/11:30am 30.8 - - - - SW 15 19 8 10 1010.1 - -
23/11:00am 30.7 - - - - SSW 15 19 8 10 1010.6 1010.5 -
23/10:30am 30.8 - - - - SSW 13 17 7 9 1010.9 - -
23/10:00am 31.9 - - - - NE 6 13 3 7 1011.4 1011.3 -
23/09:30am 31.7 - - - - ESE 7 13 4 7 1011.8 - -
23/09:00am 30.6 - - - - S 17 20 9 11 1011.6 1011.5 -
23/08:30am 30.3 - - - - S 19 22 10 12 1011.7 - -
23/08:00am 30.0 - - - - SSW 13 17 7 9 1011.7 1011.6 -
23/07:30am 29.3 - - - - S 17 20 9 11 1011.5 - -
23/07:00am 28.9 - - - - S 15 20 8 11 1011.3 1011.2 -
23/06:30am 28.4 - - - - S 17 20 9 11 1010.8 - -
23/06:00am 28.2 - - - - SSW 19 24 10 13 1010.6 1010.5 -
23/05:30am 28.4 - - - - SW 17 20 9 11 1010.3 - -
23/05:00am 28.4 - - - - SW 15 19 8 10 1010.3 1010.2 -
23/04:30am 28.5 - - - - SW 17 20 9 11 1010.0 - -
23/04:00am 28.6 - - - - WSW 17 19 9 10 1010.0 1009.9 -
23/03:30am 28.5 - - - - SW 17 20 9 11 1010.0 - -
23/03:00am 28.7 - - - - SW 19 22 10 12 1010.0 1009.9 -
23/02:30am 28.2 - - - - WSW 19 22 10 12 1010.0 - -
23/02:00am 28.3 - - - - WSW 20 24 11 13 1010.3 1010.2 -
23/01:30am 28.3 - - - - WSW 20 24 11 13 1010.7 - -
23/01:00am 28.4 - - - - W 19 20 10 11 1011.1 1011.0 -
23/12:30am 28.3 - - - - W 19 20 10 11 1011.4 - -
23/12:00am 28.4 - - - - W 17 20 9 11 1011.6 1011.5 -
 
Date/Time
WST
Temp
°C
App
Temp
°C
Dew
Point
Rel
Hum
%
Delta-T
°C
Wind Press
QNH
hPa
Press
MSL
hPa
Rain
since 9 am
mm
Dir
 
Spd
km/h
Gust
km/h
Spd
kts
Gust
kts
22/11:30pm 28.3 - - - - W 17 22 9 12 1012.0 - -
22/11:00pm 28.6 - - - - W 17 20 9 11 1012.1 1012.0 -
22/10:30pm 28.9 - - - - W 17 20 9 11 1012.1 - -
22/10:00pm 28.7 - - - - W 17 19 9 10 1011.9 1011.8 -
22/09:30pm 28.9 - - - - W 13 17 7 9 1012.0 - -
22/09:00pm 28.8 - - - - W 13 15 7 8 1011.9 1011.8 -
22/08:30pm 28.9 - - - - WNW 11 13 6 7 1011.8 - -
22/08:00pm 29.2 - - - - WNW 11 13 6 7 1011.6 1011.5 -
22/07:30pm 28.9 - - - - W 11 13 6 7 1011.2 - -
22/07:00pm 29.1 - - - - WNW 11 13 6 7 1010.8 1010.7 -
22/06:30pm 28.9 - - - - WSW 11 15 6 8 1010.4 - -
22/06:00pm 29.4 - - - - WNW 11 13 6 7 1010.2 1010.1 -
22/05:30pm 29.5 - - - - WNW 9 11 5 6 1010.1 - -
22/05:00pm 29.8 - - - - SSW 9 11 5 6 1009.9 1009.8 -
22/04:30pm 30.1 - - - - SSW 11 13 6 7 1009.7 - -
22/04:00pm 30.4 - - - - SW 11 15 6 8 1009.5 1009.4 -
22/03:30pm 30.5 - - - - W 11 15 6 8 1009.3 - -
22/03:00pm 30.6 - - - - SW 11 17 6 9 1009.3 1009.2 -
22/02:30pm 31.1 - - - - SSE 11 19 6 10 1009.3 - -
22/02:00pm 30.8 - - - - SE 13 17 7 9 1009.6 1009.5 -
22/01:30pm 30.9 - - - - E 13 19 7 10 1009.9 - -
22/01:00pm 31.2 - - - - E 11 17 6 9 1010.3 1010.2 -
22/12:30pm 30.3 - - - - ENE 13 17 7 9 1010.6 - -
22/12:00pm 31.4 - - - - ENE 11 15 6 8 1011.1 1011.0 -
22/11:30am 30.8 - - - - ENE 13 17 7 9 1011.5 - -
22/11:00am 30.4 - - - - E 15 20 8 11 1012.1 1012.0 -
22/10:30am 30.3 - - - - E 15 19 8 10 1012.4 - -
22/10:00am 31.0 - - - - ESE 17 20 9 11 1012.5 1012.4 -
22/09:30am 31.2 - - - - SE 17 20 9 11 1012.8 - -
22/09:00am 30.2 - - - - ESE 19 22 10 12 1012.7 1012.6 -
22/08:30am 29.8 - - - - SE 17 22 9 12 1012.6 - -
22/08:00am 29.5 - - - - SSE 17 20 9 11 1012.5 1012.4 -
22/07:30am 29.2 - - - - SE 15 19 8 10 1012.3 - -
22/07:00am 28.8 - - - - SE 11 13 6 7 1012.1 1012.0 -
22/06:30am 28.1 - - - - S 13 15 7 8 1011.8 - -
22/06:00am 27.9 - - - - S 11 15 6 8 1011.7 1011.6 -
22/05:30am 27.9 - - - - S 17 19 9 10 1011.3 - -
22/05:00am 28.1 - - - - S 17 20 9 11 1011.1 1011.0 -
22/04:30am 28.0 - - - - S 15 17 8 9 1010.9 - -
22/04:00am 28.4 - - - - S 17 20 9 11 1010.8 1010.7 -
22/03:30am 28.6 - - - - S 19 20 10 11 1010.6 - -
22/03:00am 28.4 - - - - S 15 19 8 10 1010.7 1010.6 -
22/02:30am 28.8 - - - - SSW 17 19 9 10 1010.8 - -
22/02:00am 28.6 - - - - SSW 19 24 10 13 1010.9 1010.8 -
22/01:30am 28.6 - - - - SSW 20 24 11 13 1011.3 - -
22/01:00am 28.7 - - - - SSW 17 20 9 11 1011.7 1011.6 -
22/12:30am 28.5 - - - - SW 17 20 9 11 1012.0 - -
22/12:00am 28.7 - - - - SW 17 19 9 10 1012.2 1012.1 -
 
Date/Time
WST
Temp
°C
App
Temp
°C
Dew
Point
Rel
Hum
%
Delta-T
°C
Wind Press
QNH
hPa
Press
MSL
hPa
Rain
since 9 am
mm
Dir
 
Spd
km/h
Gust
km/h
Spd
kts
Gust
kts
21/11:30pm 28.7 - - - - SW 17 19 9 10 1012.5 - -
21/11:00pm 28.9 - - - - SSW 13 15 7 8 1012.7 1012.6 -
21/10:30pm 29.2 - - - - SW 13 15 7 8 1012.8 - -
21/10:00pm 29.1 - - - - SSW 15 17 8 9 1012.7 1012.6 -
21/09:30pm 28.8 - - - - SSW 15 17 8 9 1012.9 - -
21/09:00pm 29.3 - - - - S 15 17 8 9 1012.7 1012.6 -
21/08:30pm 28.9 - - - - S 13 15 7 8 1012.5 - -
21/08:00pm 29.3 - - - - S 15 15 8 8 1012.2 1012.1 -
21/07:30pm 29.5 - - - - S 13 17 7 9 1011.9 - -
21/07:00pm 29.3 - - - - SSW 13 15 7 8 1011.5 1011.4 -
21/06:30pm 28.8 - - - - SSW 11 13 6 7 1011.3 - -
21/06:00pm 29.1 - - - - S 13 13 7 7 1011.0 1010.9 -
21/05:30pm 29.0 - - - - S 11 13 6 7 1010.6 - -
21/05:00pm 29.6 - - - - S 11 13 6 7 1010.5 1010.4 -
21/04:30pm 30.1 - - - - SSE 13 17 7 9 1010.0 - -
21/04:00pm 30.3 - - - - SSE 13 19 7 10 1009.8 1009.7 -
21/03:30pm 30.5 - - - - SSE 15 20 8 11 1009.8 - -
21/03:00pm 30.5 - - - - SSE 15 22 8 12 1009.7 1009.6 -
21/02:30pm 30.4 - - - - SSE 13 20 7 11 1009.6 - -
21/02:00pm 30.6 - - - - SSE 13 19 7 10 1009.7 1009.6 -
21/01:30pm 30.5 - - - - SSE 13 22 7 12 1009.8 - -
21/01:00pm 30.6 - - - - SSE 13 20 7 11 1010.1 1010.0 -
21/12:30pm 30.6 - - - - SE 15 20 8 11 1010.4 - -
21/12:00pm 30.7 - - - - SSE 17 20 9 11 1010.7 1010.6 -
21/11:30am 30.6 - - - - SE 17 20 9 11 1011.1 - -
21/11:00am 30.2 - - - - ESE 15 19 8 10 1011.5 1011.4 -
21/10:30am 30.3 - - - - SE 13 17 7 9 1011.8 - -

Other Formats:

Comma delimited format used in spreadsheet applications
http://www.bom.gov.au/fwo/IDW60801/IDW60801.94210.axf

JavaScript Object Notation format (JSON) in row-major order
http://www.bom.gov.au/fwo/IDW60801/IDW60801.94210.json